sensor_id;sensor_type;location;lat;lon;timestamp;P1;durP1;ratioP1;P2;durP2;ratioP2
44328;SDS011;30039;51.462;6.892;2023-02-28T00:02:44;9.80;;;4.93;;
44328;SDS011;30039;51.462;6.892;2023-02-28T00:05:30;10.30;;;4.88;;
44328;SDS011;30039;51.462;6.892;2023-02-28T00:08:15;12.50;;;4.60;;
44328;SDS011;30039;51.462;6.892;2023-02-28T00:11:02;8.63;;;4.80;;
44328;SDS011;30039;51.462;6.892;2023-02-28T00:13:48;8.48;;;4.45;;
44328;SDS011;30039;51.462;6.892;2023-02-28T00:16:34;10.32;;;4.55;;
44328;SDS011;30039;51.462;6.892;2023-02-28T00:19:20;8.38;;;4.80;;
44328;SDS011;30039;51.462;6.892;2023-02-28T00:22:05;9.35;;;5.15;;
44328;SDS011;30039;51.462;6.892;2023-02-28T00:24:51;8.38;;;4.15;;
44328;SDS011;30039;51.462;6.892;2023-02-28T00:27:37;8.02;;;4.18;;
44328;SDS011;30039;51.462;6.892;2023-02-28T00:30:23;7.07;;;4.57;;
44328;SDS011;30039;51.462;6.892;2023-02-28T00:33:09;8.52;;;3.88;;
44328;SDS011;30039;51.462;6.892;2023-02-28T00:36:11;7.75;;;4.00;;
44328;SDS011;30039;51.462;6.892;2023-02-28T00:38:57;8.15;;;3.90;;
44328;SDS011;30039;51.462;6.892;2023-02-28T00:41:43;7.28;;;4.32;;
44328;SDS011;30039;51.462;6.892;2023-02-28T00:44:28;6.75;;;3.80;;
44328;SDS011;30039;51.462;6.892;2023-02-28T00:47:14;8.48;;;3.85;;
44328;SDS011;30039;51.462;6.892;2023-02-28T00:50:00;6.55;;;4.10;;
44328;SDS011;30039;51.462;6.892;2023-02-28T00:52:46;5.57;;;4.00;;
44328;SDS011;30039;51.462;6.892;2023-02-28T00:55:32;6.35;;;3.80;;
44328;SDS011;30039;51.462;6.892;2023-02-28T00:58:17;8.65;;;3.58;;
44328;SDS011;30039;51.462;6.892;2023-02-28T01:01:03;8.32;;;4.60;;
44328;SDS011;30039;51.462;6.892;2023-02-28T01:03:49;8.60;;;3.67;;
44328;SDS011;30039;51.462;6.892;2023-02-28T01:06:35;7.35;;;4.00;;
44328;SDS011;30039;51.462;6.892;2023-02-28T01:09:21;5.53;;;3.55;;
44328;SDS011;30039;51.462;6.892;2023-02-28T01:12:07;7.10;;;3.72;;
44328;SDS011;30039;51.462;6.892;2023-02-28T01:14:53;7.18;;;3.35;;
44328;SDS011;30039;51.462;6.892;2023-02-28T01:17:42;6.72;;;3.13;;
44328;SDS011;30039;51.462;6.892;2023-02-28T01:20:27;7.00;;;3.25;;
44328;SDS011;30039;51.462;6.892;2023-02-28T01:23:13;7.18;;;3.70;;
44328;SDS011;30039;51.462;6.892;2023-02-28T01:26:09;6.22;;;3.92;;
44328;SDS011;30039;51.462;6.892;2023-02-28T01:28:55;7.18;;;3.60;;
44328;SDS011;30039;51.462;6.892;2023-02-28T01:31:41;5.63;;;2.95;;
44328;SDS011;30039;51.462;6.892;2023-02-28T01:34:27;5.10;;;2.92;;
44328;SDS011;30039;51.462;6.892;2023-02-28T01:37:12;8.80;;;3.03;;
44328;SDS011;30039;51.462;6.892;2023-02-28T01:39:59;6.28;;;3.28;;
44328;SDS011;30039;51.462;6.892;2023-02-28T01:42:45;5.15;;;2.83;;
44328;SDS011;30039;51.462;6.892;2023-02-28T01:45:31;6.20;;;3.08;;
44328;SDS011;30039;51.462;6.892;2023-02-28T01:48:17;9.95;;;3.42;;
44328;SDS011;30039;51.462;6.892;2023-02-28T01:51:08;5.53;;;3.15;;
44328;SDS011;30039;51.462;6.892;2023-02-28T01:53:58;5.80;;;2.78;;
44328;SDS011;30039;51.462;6.892;2023-02-28T01:56:46;5.95;;;2.90;;
44328;SDS011;30039;51.462;6.892;2023-02-28T01:59:35;6.05;;;3.13;;
44328;SDS011;30039;51.462;6.892;2023-02-28T02:02:22;6.10;;;3.30;;
44328;SDS011;30039;51.462;6.892;2023-02-28T02:05:10;5.25;;;3.22;;
44328;SDS011;30039;51.462;6.892;2023-02-28T02:08:03;5.90;;;3.10;;
44328;SDS011;30039;51.462;6.892;2023-02-28T02:10:53;5.97;;;2.75;;
44328;SDS011;30039;51.462;6.892;2023-02-28T02:31:16;6.15;;;2.80;;
44328;SDS011;30039;51.462;6.892;2023-02-28T02:36:53;5.28;;;2.63;;
44328;SDS011;30039;51.462;6.892;2023-02-28T02:39:53;7.90;;;3.15;;
44328;SDS011;30039;51.462;6.892;2023-02-28T02:45:39;5.35;;;2.47;;
44328;SDS011;30039;51.462;6.892;2023-02-28T02:48:28;7.30;;;3.10;;
44328;SDS011;30039;51.462;6.892;2023-02-28T02:51:16;4.88;;;2.60;;
44328;SDS011;30039;51.462;6.892;2023-02-28T02:54:37;4.00;;;2.20;;
44328;SDS011;30039;51.462;6.892;2023-02-28T02:57:22;5.20;;;2.20;;
44328;SDS011;30039;51.462;6.892;2023-02-28T03:00:09;7.25;;;2.45;;
44328;SDS011;30039;51.462;6.892;2023-02-28T03:02:55;4.45;;;2.42;;
44328;SDS011;30039;51.462;6.892;2023-02-28T03:05:42;6.00;;;2.75;;
44328;SDS011;30039;51.462;6.892;2023-02-28T03:08:35;5.57;;;2.85;;
44328;SDS011;30039;51.462;6.892;2023-02-28T03:11:21;6.45;;;2.58;;
44328;SDS011;30039;51.462;6.892;2023-02-28T03:25:29;7.85;;;2.50;;
44328;SDS011;30039;51.462;6.892;2023-02-28T03:31:44;4.85;;;2.30;;
44328;SDS011;30039;51.462;6.892;2023-02-28T03:34:37;3.42;;;2.22;;
44328;SDS011;30039;51.462;6.892;2023-02-28T03:37:24;5.93;;;2.70;;
44328;SDS011;30039;51.462;6.892;2023-02-28T03:40:12;7.28;;;2.65;;
44328;SDS011;30039;51.462;6.892;2023-02-28T03:43:00;3.83;;;2.05;;
44328;SDS011;30039;51.462;6.892;2023-02-28T03:45:47;6.93;;;2.65;;
44328;SDS011;30039;51.462;6.892;2023-02-28T03:48:40;4.60;;;2.30;;
44328;SDS011;30039;51.462;6.892;2023-02-28T03:51:26;5.93;;;3.00;;
44328;SDS011;30039;51.462;6.892;2023-02-28T03:54:14;6.00;;;2.97;;
44328;SDS011;30039;51.462;6.892;2023-02-28T03:57:48;5.25;;;3.08;;
44328;SDS011;30039;51.462;6.892;2023-02-28T04:00:14;5.43;;;2.45;;
44328;SDS011;30039;51.462;6.892;2023-02-28T04:03:03;4.85;;;2.60;;
44328;SDS011;30039;51.462;6.892;2023-02-28T04:05:50;6.60;;;2.80;;
44328;SDS011;30039;51.462;6.892;2023-02-28T04:08:37;5.82;;;2.88;;
44328;SDS011;30039;51.462;6.892;2023-02-28T04:11:24;5.72;;;2.92;;
44328;SDS011;30039;51.462;6.892;2023-02-28T04:14:19;5.85;;;2.55;;
44328;SDS011;30039;51.462;6.892;2023-02-28T04:17:05;7.43;;;3.13;;
44328;SDS011;30039;51.462;6.892;2023-02-28T04:19:51;5.47;;;2.75;;
44328;SDS011;30039;51.462;6.892;2023-02-28T04:22:36;6.45;;;2.83;;
44328;SDS011;30039;51.462;6.892;2023-02-28T04:25:22;5.03;;;2.63;;
44328;SDS011;30039;51.462;6.892;2023-02-28T04:28:08;7.65;;;3.35;;
44328;SDS011;30039;51.462;6.892;2023-02-28T04:30:58;5.70;;;3.00;;
44328;SDS011;30039;51.462;6.892;2023-02-28T04:33:44;6.35;;;2.65;;
44328;SDS011;30039;51.462;6.892;2023-02-28T04:36:30;4.57;;;2.88;;
44328;SDS011;30039;51.462;6.892;2023-02-28T04:39:16;4.82;;;2.50;;
44328;SDS011;30039;51.462;6.892;2023-02-28T04:42:03;6.88;;;2.65;;
44328;SDS011;30039;51.462;6.892;2023-02-28T04:44:49;5.95;;;3.10;;
44328;SDS011;30039;51.462;6.892;2023-02-28T04:47:35;4.47;;;2.55;;
44328;SDS011;30039;51.462;6.892;2023-02-28T04:50:20;8.02;;;2.95;;
44328;SDS011;30039;51.462;6.892;2023-02-28T04:53:06;5.60;;;2.67;;
44328;SDS011;30039;51.462;6.892;2023-02-28T04:55:51;9.18;;;3.00;;
44328;SDS011;30039;51.462;6.892;2023-02-28T04:58:37;3.42;;;2.13;;
44328;SDS011;30039;51.462;6.892;2023-02-28T05:01:28;3.97;;;2.63;;
44328;SDS011;30039;51.462;6.892;2023-02-28T05:04:14;4.35;;;2.30;;
44328;SDS011;30039;51.462;6.892;2023-02-28T05:07:00;4.05;;;2.50;;
44328;SDS011;30039;51.462;6.892;2023-02-28T05:09:46;5.68;;;2.60;;
44328;SDS011;30039;51.462;6.892;2023-02-28T05:12:32;3.95;;;2.15;;
44328;SDS011;30039;51.462;6.892;2023-02-28T05:15:17;4.60;;;2.50;;
44328;SDS011;30039;51.462;6.892;2023-02-28T05:18:04;6.18;;;2.33;;
44328;SDS011;30039;51.462;6.892;2023-02-28T05:20:50;4.95;;;2.78;;
44328;SDS011;30039;51.462;6.892;2023-02-28T05:23:36;4.50;;;2.47;;
44328;SDS011;30039;51.462;6.892;2023-02-28T05:26:22;5.85;;;2.40;;
44328;SDS011;30039;51.462;6.892;2023-02-28T05:29:08;7.13;;;2.40;;
44328;SDS011;30039;51.462;6.892;2023-02-28T05:31:54;5.60;;;2.20;;
44328;SDS011;30039;51.462;6.892;2023-02-28T05:34:39;4.72;;;2.55;;
44328;SDS011;30039;51.462;6.892;2023-02-28T05:37:25;7.78;;;3.30;;
44328;SDS011;30039;51.462;6.892;2023-02-28T05:40:11;4.53;;;2.60;;
44328;SDS011;30039;51.462;6.892;2023-02-28T05:42:57;3.75;;;2.30;;
44328;SDS011;30039;51.462;6.892;2023-02-28T05:45:43;4.15;;;2.30;;
44328;SDS011;30039;51.462;6.892;2023-02-28T05:48:28;4.25;;;2.20;;
44328;SDS011;30039;51.462;6.892;2023-02-28T05:51:15;8.25;;;2.42;;
44328;SDS011;30039;51.462;6.892;2023-02-28T05:54:01;13.75;;;5.65;;
44328;SDS011;30039;51.462;6.892;2023-02-28T05:56:47;5.63;;;3.10;;
44328;SDS011;30039;51.462;6.892;2023-02-28T05:59:32;7.32;;;2.80;;
44328;SDS011;30039;51.462;6.892;2023-02-28T06:02:18;6.82;;;2.70;;
44328;SDS011;30039;51.462;6.892;2023-02-28T06:05:04;5.57;;;2.72;;
44328;SDS011;30039;51.462;6.892;2023-02-28T06:07:55;6.20;;;2.95;;
44328;SDS011;30039;51.462;6.892;2023-02-28T06:10:41;6.38;;;2.90;;
44328;SDS011;30039;51.462;6.892;2023-02-28T06:13:27;5.00;;;2.60;;
44328;SDS011;30039;51.462;6.892;2023-02-28T06:16:12;6.78;;;2.50;;
44328;SDS011;30039;51.462;6.892;2023-02-28T06:19:00;7.35;;;3.88;;
44328;SDS011;30039;51.462;6.892;2023-02-28T06:21:49;8.35;;;4.70;;
44328;SDS011;30039;51.462;6.892;2023-02-28T06:24:37;17.63;;;9.40;;
44328;SDS011;30039;51.462;6.892;2023-02-28T06:27:23;13.10;;;5.95;;
44328;SDS011;30039;51.462;6.892;2023-02-28T06:30:09;10.50;;;6.15;;
44328;SDS011;30039;51.462;6.892;2023-02-28T06:32:55;7.18;;;3.03;;
44328;SDS011;30039;51.462;6.892;2023-02-28T06:35:43;7.88;;;4.47;;
44328;SDS011;30039;51.462;6.892;2023-02-28T06:38:29;12.43;;;5.20;;
44328;SDS011;30039;51.462;6.892;2023-02-28T06:41:15;9.45;;;3.58;;
44328;SDS011;30039;51.462;6.892;2023-02-28T06:44:04;6.50;;;3.28;;
44328;SDS011;30039;51.462;6.892;2023-02-28T06:46:51;7.22;;;3.50;;
44328;SDS011;30039;51.462;6.892;2023-02-28T06:49:36;5.53;;;2.50;;
44328;SDS011;30039;51.462;6.892;2023-02-28T06:52:22;9.05;;;2.80;;
44328;SDS011;30039;51.462;6.892;2023-02-28T06:55:08;10.70;;;4.50;;
44328;SDS011;30039;51.462;6.892;2023-02-28T06:57:54;6.05;;;2.80;;
44328;SDS011;30039;51.462;6.892;2023-02-28T07:00:41;11.95;;;3.28;;
44328;SDS011;30039;51.462;6.892;2023-02-28T07:03:27;6.53;;;2.97;;
44328;SDS011;30039;51.462;6.892;2023-02-28T07:06:12;6.32;;;3.38;;
44328;SDS011;30039;51.462;6.892;2023-02-28T07:08:58;4.13;;;2.55;;
44328;SDS011;30039;51.462;6.892;2023-02-28T07:11:44;8.63;;;4.40;;
44328;SDS011;30039;51.462;6.892;2023-02-28T07:14:30;9.02;;;3.53;;
44328;SDS011;30039;51.462;6.892;2023-02-28T07:17:15;6.35;;;3.00;;
44328;SDS011;30039;51.462;6.892;2023-02-28T07:20:01;4.47;;;2.45;;
44328;SDS011;30039;51.462;6.892;2023-02-28T07:22:50;4.40;;;2.50;;
44328;SDS011;30039;51.462;6.892;2023-02-28T07:25:41;8.05;;;3.38;;
44328;SDS011;30039;51.462;6.892;2023-02-28T07:28:27;4.82;;;2.70;;
44328;SDS011;30039;51.462;6.892;2023-02-28T07:31:13;4.70;;;2.85;;
44328;SDS011;30039;51.462;6.892;2023-02-28T07:34:02;8.70;;;3.55;;
44328;SDS011;30039;51.462;6.892;2023-02-28T07:36:48;5.05;;;2.88;;
44328;SDS011;30039;51.462;6.892;2023-02-28T07:39:34;8.93;;;2.85;;
44328;SDS011;30039;51.462;6.892;2023-02-28T07:42:21;8.45;;;2.67;;
44328;SDS011;30039;51.462;6.892;2023-02-28T07:45:07;7.72;;;2.50;;
44328;SDS011;30039;51.462;6.892;2023-02-28T07:47:54;5.75;;;2.38;;
44328;SDS011;30039;51.462;6.892;2023-02-28T07:50:39;4.25;;;2.40;;
44328;SDS011;30039;51.462;6.892;2023-02-28T07:53:26;3.85;;;2.33;;
44328;SDS011;30039;51.462;6.892;2023-02-28T07:56:11;4.88;;;2.50;;
44328;SDS011;30039;51.462;6.892;2023-02-28T07:58:57;5.85;;;3.17;;
44328;SDS011;30039;51.462;6.892;2023-02-28T08:01:42;5.30;;;2.70;;
44328;SDS011;30039;51.462;6.892;2023-02-28T08:04:31;4.60;;;2.50;;
44328;SDS011;30039;51.462;6.892;2023-02-28T08:07:17;4.32;;;2.47;;
44328;SDS011;30039;51.462;6.892;2023-02-28T08:10:03;3.92;;;2.33;;
44328;SDS011;30039;51.462;6.892;2023-02-28T08:12:50;5.00;;;2.80;;
44328;SDS011;30039;51.462;6.892;2023-02-28T08:15:36;5.38;;;2.45;;
44328;SDS011;30039;51.462;6.892;2023-02-28T08:18:22;3.13;;;1.92;;
44328;SDS011;30039;51.462;6.892;2023-02-28T08:21:08;4.75;;;2.60;;
44328;SDS011;30039;51.462;6.892;2023-02-28T08:23:54;6.53;;;2.30;;
44328;SDS011;30039;51.462;6.892;2023-02-28T08:26:42;4.43;;;2.30;;
44328;SDS011;30039;51.462;6.892;2023-02-28T08:29:27;3.35;;;2.28;;
44328;SDS011;30039;51.462;6.892;2023-02-28T08:32:14;4.43;;;2.13;;
44328;SDS011;30039;51.462;6.892;2023-02-28T08:35:00;3.58;;;2.13;;
44328;SDS011;30039;51.462;6.892;2023-02-28T08:37:47;5.40;;;2.20;;
44328;SDS011;30039;51.462;6.892;2023-02-28T08:40:32;4.68;;;1.98;;
44328;SDS011;30039;51.462;6.892;2023-02-28T08:43:18;9.55;;;2.00;;
44328;SDS011;30039;51.462;6.892;2023-02-28T08:46:04;4.75;;;2.45;;
44328;SDS011;30039;51.462;6.892;2023-02-28T08:48:54;4.65;;;2.50;;
44328;SDS011;30039;51.462;6.892;2023-02-28T08:51:40;4.45;;;2.08;;
44328;SDS011;30039;51.462;6.892;2023-02-28T08:54:25;4.07;;;2.10;;
44328;SDS011;30039;51.462;6.892;2023-02-28T08:57:11;2.88;;;1.83;;
44328;SDS011;30039;51.462;6.892;2023-02-28T08:59:57;2.97;;;1.98;;
44328;SDS011;30039;51.462;6.892;2023-02-28T09:02:42;3.88;;;2.13;;
44328;SDS011;30039;51.462;6.892;2023-02-28T09:05:29;4.40;;;1.83;;
44328;SDS011;30039;51.462;6.892;2023-02-28T09:08:15;2.65;;;1.90;;
44328;SDS011;30039;51.462;6.892;2023-02-28T09:11:00;3.22;;;1.88;;
44328;SDS011;30039;51.462;6.892;2023-02-28T09:13:47;2.85;;;1.80;;
44328;SDS011;30039;51.462;6.892;2023-02-28T09:16:32;2.58;;;1.60;;
44328;SDS011;30039;51.462;6.892;2023-02-28T09:19:18;4.30;;;2.08;;
44328;SDS011;30039;51.462;6.892;2023-02-28T09:22:04;2.80;;;1.80;;
44328;SDS011;30039;51.462;6.892;2023-02-28T09:24:49;3.58;;;1.85;;
44328;SDS011;30039;51.462;6.892;2023-02-28T09:27:35;5.00;;;1.55;;
44328;SDS011;30039;51.462;6.892;2023-02-28T09:30:22;3.80;;;2.00;;
44328;SDS011;30039;51.462;6.892;2023-02-28T09:33:08;3.92;;;1.90;;
44328;SDS011;30039;51.462;6.892;2023-02-28T09:36:00;4.05;;;1.88;;
44328;SDS011;30039;51.462;6.892;2023-02-28T09:38:46;4.03;;;2.00;;
44328;SDS011;30039;51.462;6.892;2023-02-28T09:41:36;4.50;;;1.90;;
44328;SDS011;30039;51.462;6.892;2023-02-28T09:53:06;3.63;;;1.63;;
44328;SDS011;30039;51.462;6.892;2023-02-28T09:56:07;3.13;;;1.63;;
44328;SDS011;30039;51.462;6.892;2023-02-28T09:58:54;2.25;;;1.77;;
44328;SDS011;30039;51.462;6.892;2023-02-28T10:13:15;2.78;;;1.42;;
44328;SDS011;30039;51.462;6.892;2023-02-28T10:16:03;4.55;;;1.70;;
44328;SDS011;30039;51.462;6.892;2023-02-28T10:18:52;4.40;;;1.58;;
44328;SDS011;30039;51.462;6.892;2023-02-28T10:21:44;2.28;;;1.40;;
44328;SDS011;30039;51.462;6.892;2023-02-28T10:24:36;1.90;;;1.50;;
44328;SDS011;30039;51.462;6.892;2023-02-28T10:27:24;3.28;;;1.60;;
44328;SDS011;30039;51.462;6.892;2023-02-28T10:30:10;2.50;;;1.50;;
44328;SDS011;30039;51.462;6.892;2023-02-28T10:32:57;2.67;;;1.42;;
44328;SDS011;30039;51.462;6.892;2023-02-28T10:35:43;2.40;;;1.50;;
44328;SDS011;30039;51.462;6.892;2023-02-28T10:41:27;2.83;;;1.50;;
44328;SDS011;30039;51.462;6.892;2023-02-28T10:47:00;2.90;;;1.67;;
44328;SDS011;30039;51.462;6.892;2023-02-28T10:49:49;2.80;;;1.63;;
44328;SDS011;30039;51.462;6.892;2023-02-28T10:52:36;1.90;;;1.33;;
44328;SDS011;30039;51.462;6.892;2023-02-28T10:55:24;2.42;;;1.38;;
44328;SDS011;30039;51.462;6.892;2023-02-28T10:58:33;2.72;;;1.58;;
44328;SDS011;30039;51.462;6.892;2023-02-28T11:01:20;3.15;;;1.20;;
44328;SDS011;30039;51.462;6.892;2023-02-28T11:04:16;2.90;;;1.45;;
44328;SDS011;30039;51.462;6.892;2023-02-28T11:09:50;3.22;;;1.48;;
44328;SDS011;30039;51.462;6.892;2023-02-28T11:12:37;2.60;;;1.40;;
44328;SDS011;30039;51.462;6.892;2023-02-28T11:20:58;2.88;;;1.10;;
44328;SDS011;30039;51.462;6.892;2023-02-28T11:23:45;2.80;;;1.00;;
44328;SDS011;30039;51.462;6.892;2023-02-28T11:26:35;3.70;;;1.35;;
44328;SDS011;30039;51.462;6.892;2023-02-28T11:32:20;4.55;;;1.58;;
44328;SDS011;30039;51.462;6.892;2023-02-28T11:37:54;2.47;;;1.45;;
44328;SDS011;30039;51.462;6.892;2023-02-28T11:43:41;3.08;;;1.50;;
44328;SDS011;30039;51.462;6.892;2023-02-28T11:46:41;3.05;;;1.42;;
44328;SDS011;30039;51.462;6.892;2023-02-28T11:52:20;2.55;;;1.30;;
44328;SDS011;30039;51.462;6.892;2023-02-28T12:07:09;4.97;;;1.80;;
44328;SDS011;30039;51.462;6.892;2023-02-28T12:27:17;2.67;;;1.42;;
44328;SDS011;30039;51.462;6.892;2023-02-28T12:30:13;3.33;;;1.40;;
44328;SDS011;30039;51.462;6.892;2023-02-28T12:33:09;2.75;;;1.60;;
44328;SDS011;30039;51.462;6.892;2023-02-28T12:35:58;3.33;;;1.77;;
44328;SDS011;30039;51.462;6.892;2023-02-28T12:38:45;2.90;;;1.60;;
44328;SDS011;30039;51.462;6.892;2023-02-28T12:41:41;2.97;;;1.60;;
44328;SDS011;30039;51.462;6.892;2023-02-28T12:44:35;3.05;;;1.77;;
44328;SDS011;30039;51.462;6.892;2023-02-28T12:47:22;3.58;;;1.85;;
44328;SDS011;30039;51.462;6.892;2023-02-28T12:50:10;3.20;;;1.45;;
44328;SDS011;30039;51.462;6.892;2023-02-28T13:09:52;4.53;;;1.90;;
44328;SDS011;30039;51.462;6.892;2023-02-28T13:12:38;3.30;;;1.70;;
44328;SDS011;30039;51.462;6.892;2023-02-28T13:15:32;2.17;;;1.70;;
44328;SDS011;30039;51.462;6.892;2023-02-28T13:18:31;3.13;;;2.00;;
44328;SDS011;30039;51.462;6.892;2023-02-28T13:21:24;3.58;;;1.83;;
44328;SDS011;30039;51.462;6.892;2023-02-28T13:24:10;5.45;;;1.83;;
44328;SDS011;30039;51.462;6.892;2023-02-28T13:29:45;3.42;;;2.05;;
44328;SDS011;30039;51.462;6.892;2023-02-28T13:32:31;6.90;;;2.05;;
44328;SDS011;30039;51.462;6.892;2023-02-28T13:35:34;3.13;;;2.00;;
44328;SDS011;30039;51.462;6.892;2023-02-28T13:38:24;2.58;;;1.95;;
44328;SDS011;30039;51.462;6.892;2023-02-28T13:44:21;3.22;;;2.03;;
44328;SDS011;30039;51.462;6.892;2023-02-28T13:50:07;3.88;;;2.17;;
44328;SDS011;30039;51.462;6.892;2023-02-28T14:11:03;6.25;;;2.40;;
44328;SDS011;30039;51.462;6.892;2023-02-28T14:13:50;2.58;;;1.90;;
44328;SDS011;30039;51.462;6.892;2023-02-28T14:30:51;2.03;;;1.70;;
44328;SDS011;30039;51.462;6.892;2023-02-28T14:36:53;4.00;;;2.30;;
44328;SDS011;30039;51.462;6.892;2023-02-28T14:39:40;4.90;;;2.20;;
44328;SDS011;30039;51.462;6.892;2023-02-28T14:42:31;3.92;;;2.55;;
44328;SDS011;30039;51.462;6.892;2023-02-28T14:45:20;5.07;;;2.40;;
44328;SDS011;30039;51.462;6.892;2023-02-28T14:48:08;3.40;;;2.35;;
44328;SDS011;30039;51.462;6.892;2023-02-28T14:50:58;3.13;;;2.47;;
44328;SDS011;30039;51.462;6.892;2023-02-28T14:53:45;2.78;;;2.28;;
44328;SDS011;30039;51.462;6.892;2023-02-28T14:56:35;2.40;;;2.00;;
44328;SDS011;30039;51.462;6.892;2023-02-28T14:59:25;3.63;;;1.90;;
44328;SDS011;30039;51.462;6.892;2023-02-28T15:02:19;3.47;;;2.00;;
44328;SDS011;30039;51.462;6.892;2023-02-28T15:08:05;4.00;;;2.03;;
44328;SDS011;30039;51.462;6.892;2023-02-28T15:16:36;3.80;;;2.53;;
44328;SDS011;30039;51.462;6.892;2023-02-28T15:19:30;3.50;;;2.22;;
44328;SDS011;30039;51.462;6.892;2023-02-28T15:22:18;4.32;;;2.35;;
44328;SDS011;30039;51.462;6.892;2023-02-28T15:25:05;2.97;;;2.25;;
44328;SDS011;30039;51.462;6.892;2023-02-28T15:27:55;3.50;;;2.40;;
44328;SDS011;30039;51.462;6.892;2023-02-28T15:30:50;3.47;;;2.40;;
44328;SDS011;30039;51.462;6.892;2023-02-28T15:33:37;3.67;;;2.47;;
44328;SDS011;30039;51.462;6.892;2023-02-28T15:36:28;4.80;;;2.40;;
44328;SDS011;30039;51.462;6.892;2023-02-28T15:42:16;4.18;;;2.20;;
44328;SDS011;30039;51.462;6.892;2023-02-28T15:45:03;3.50;;;2.08;;
44328;SDS011;30039;51.462;6.892;2023-02-28T15:47:49;3.65;;;2.10;;
44328;SDS011;30039;51.462;6.892;2023-02-28T15:50:36;4.95;;;2.50;;
44328;SDS011;30039;51.462;6.892;2023-02-28T15:53:24;3.50;;;2.42;;
44328;SDS011;30039;51.462;6.892;2023-02-28T15:56:23;4.45;;;2.63;;
44328;SDS011;30039;51.462;6.892;2023-02-28T16:02:32;7.50;;;2.97;;
44328;SDS011;30039;51.462;6.892;2023-02-28T16:05:27;4.38;;;2.13;;
44328;SDS011;30039;51.462;6.892;2023-02-28T16:08:15;5.28;;;2.80;;
44328;SDS011;30039;51.462;6.892;2023-02-28T16:11:01;4.35;;;2.35;;
44328;SDS011;30039;51.462;6.892;2023-02-28T16:13:47;3.92;;;2.38;;
44328;SDS011;30039;51.462;6.892;2023-02-28T16:16:32;3.45;;;2.30;;
44328;SDS011;30039;51.462;6.892;2023-02-28T16:19:18;4.50;;;2.72;;
44328;SDS011;30039;51.462;6.892;2023-02-28T16:22:04;4.90;;;2.30;;
44328;SDS011;30039;51.462;6.892;2023-02-28T16:24:50;3.58;;;2.30;;
44328;SDS011;30039;51.462;6.892;2023-02-28T16:27:36;4.97;;;2.38;;
44328;SDS011;30039;51.462;6.892;2023-02-28T16:30:26;3.72;;;2.38;;
44328;SDS011;30039;51.462;6.892;2023-02-28T16:33:12;3.75;;;2.30;;
44328;SDS011;30039;51.462;6.892;2023-02-28T16:35:59;5.03;;;2.25;;
44328;SDS011;30039;51.462;6.892;2023-02-28T16:38:46;5.78;;;2.33;;
44328;SDS011;30039;51.462;6.892;2023-02-28T16:41:32;4.35;;;2.30;;
44328;SDS011;30039;51.462;6.892;2023-02-28T16:47:08;4.00;;;2.58;;
44328;SDS011;30039;51.462;6.892;2023-02-28T16:49:55;4.55;;;2.17;;
44328;SDS011;30039;51.462;6.892;2023-02-28T16:52:41;3.92;;;2.47;;
44328;SDS011;30039;51.462;6.892;2023-02-28T16:55:27;2.60;;;2.05;;
44328;SDS011;30039;51.462;6.892;2023-02-28T16:58:14;4.03;;;2.45;;
44328;SDS011;30039;51.462;6.892;2023-02-28T17:01:01;4.82;;;2.67;;
44328;SDS011;30039;51.462;6.892;2023-02-28T17:03:47;4.07;;;2.30;;
44328;SDS011;30039;51.462;6.892;2023-02-28T17:06:33;3.88;;;2.50;;
44328;SDS011;30039;51.462;6.892;2023-02-28T17:09:20;3.92;;;2.20;;
44328;SDS011;30039;51.462;6.892;2023-02-28T17:12:08;6.05;;;2.70;;
44328;SDS011;30039;51.462;6.892;2023-02-28T17:14:54;6.40;;;2.47;;
44328;SDS011;30039;51.462;6.892;2023-02-28T17:17:40;4.22;;;2.75;;
44328;SDS011;30039;51.462;6.892;2023-02-28T17:20:26;7.18;;;2.65;;
44328;SDS011;30039;51.462;6.892;2023-02-28T17:23:11;5.50;;;2.70;;
44328;SDS011;30039;51.462;6.892;2023-02-28T17:25:57;5.70;;;2.70;;
44328;SDS011;30039;51.462;6.892;2023-02-28T17:28:44;5.82;;;2.97;;
44328;SDS011;30039;51.462;6.892;2023-02-28T17:31:30;4.53;;;2.25;;
44328;SDS011;30039;51.462;6.892;2023-02-28T17:34:18;4.22;;;2.38;;
44328;SDS011;30039;51.462;6.892;2023-02-28T17:37:04;5.30;;;2.55;;
44328;SDS011;30039;51.462;6.892;2023-02-28T17:39:50;4.13;;;2.60;;
44328;SDS011;30039;51.462;6.892;2023-02-28T17:42:36;4.38;;;2.45;;
44328;SDS011;30039;51.462;6.892;2023-02-28T17:45:21;5.25;;;3.03;;
44328;SDS011;30039;51.462;6.892;2023-02-28T17:48:11;5.00;;;2.55;;
44328;SDS011;30039;51.462;6.892;2023-02-28T17:50:57;8.85;;;2.78;;
44328;SDS011;30039;51.462;6.892;2023-02-28T17:53:43;6.38;;;2.95;;
44328;SDS011;30039;51.462;6.892;2023-02-28T17:56:28;5.38;;;2.85;;
44328;SDS011;30039;51.462;6.892;2023-02-28T17:59:14;5.35;;;2.70;;
44328;SDS011;30039;51.462;6.892;2023-02-28T18:02:00;4.93;;;2.80;;
44328;SDS011;30039;51.462;6.892;2023-02-28T18:04:46;5.43;;;2.72;;
44328;SDS011;30039;51.462;6.892;2023-02-28T18:07:32;6.40;;;3.50;;
44328;SDS011;30039;51.462;6.892;2023-02-28T18:10:19;4.25;;;2.75;;
44328;SDS011;30039;51.462;6.892;2023-02-28T18:13:05;5.65;;;3.25;;
44328;SDS011;30039;51.462;6.892;2023-02-28T18:15:51;7.20;;;3.55;;
44328;SDS011;30039;51.462;6.892;2023-02-28T18:18:37;7.15;;;4.28;;
44328;SDS011;30039;51.462;6.892;2023-02-28T18:21:23;7.70;;;3.95;;
44328;SDS011;30039;51.462;6.892;2023-02-28T18:24:08;7.32;;;3.60;;
44328;SDS011;30039;51.462;6.892;2023-02-28T18:26:55;8.07;;;3.60;;
44328;SDS011;30039;51.462;6.892;2023-02-28T18:29:41;5.15;;;3.45;;
44328;SDS011;30039;51.462;6.892;2023-02-28T18:32:28;6.47;;;3.97;;
44328;SDS011;30039;51.462;6.892;2023-02-28T18:35:15;8.93;;;4.18;;
44328;SDS011;30039;51.462;6.892;2023-02-28T18:38:09;9.20;;;4.10;;
44328;SDS011;30039;51.462;6.892;2023-02-28T18:40:56;7.15;;;3.97;;
44328;SDS011;30039;51.462;6.892;2023-02-28T18:43:43;7.95;;;4.22;;
44328;SDS011;30039;51.462;6.892;2023-02-28T18:46:29;11.15;;;3.58;;
44328;SDS011;30039;51.462;6.892;2023-02-28T18:49:15;12.18;;;4.78;;
44328;SDS011;30039;51.462;6.892;2023-02-28T18:52:01;7.35;;;4.32;;
44328;SDS011;30039;51.462;6.892;2023-02-28T18:54:47;9.15;;;3.90;;
44328;SDS011;30039;51.462;6.892;2023-02-28T18:57:32;8.20;;;4.15;;
44328;SDS011;30039;51.462;6.892;2023-02-28T19:00:18;8.07;;;4.13;;
44328;SDS011;30039;51.462;6.892;2023-02-28T19:03:06;9.20;;;4.10;;
44328;SDS011;30039;51.462;6.892;2023-02-28T19:05:58;6.55;;;4.00;;
44328;SDS011;30039;51.462;6.892;2023-02-28T19:08:44;7.38;;;4.38;;
44328;SDS011;30039;51.462;6.892;2023-02-28T19:11:30;7.15;;;4.30;;
44328;SDS011;30039;51.462;6.892;2023-02-28T19:14:15;7.18;;;4.40;;
44328;SDS011;30039;51.462;6.892;2023-02-28T19:17:01;9.30;;;5.65;;
44328;SDS011;30039;51.462;6.892;2023-02-28T19:19:47;9.95;;;5.88;;
44328;SDS011;30039;51.462;6.892;2023-02-28T19:22:34;10.38;;;6.38;;
44328;SDS011;30039;51.462;6.892;2023-02-28T19:25:21;8.93;;;5.00;;
44328;SDS011;30039;51.462;6.892;2023-02-28T19:28:08;8.10;;;4.72;;
44328;SDS011;30039;51.462;6.892;2023-02-28T19:30:54;8.40;;;4.88;;
44328;SDS011;30039;51.462;6.892;2023-02-28T19:33:40;7.60;;;5.00;;
44328;SDS011;30039;51.462;6.892;2023-02-28T19:36:25;11.38;;;5.78;;
44328;SDS011;30039;51.462;6.892;2023-02-28T19:39:11;10.73;;;5.38;;
44328;SDS011;30039;51.462;6.892;2023-02-28T19:41:57;11.30;;;5.93;;
44328;SDS011;30039;51.462;6.892;2023-02-28T19:44:43;9.02;;;5.53;;
44328;SDS011;30039;51.462;6.892;2023-02-28T19:47:29;11.05;;;5.28;;
44328;SDS011;30039;51.462;6.892;2023-02-28T19:50:17;8.60;;;4.88;;
44328;SDS011;30039;51.462;6.892;2023-02-28T19:53:03;8.15;;;4.78;;
44328;SDS011;30039;51.462;6.892;2023-02-28T19:55:49;53.53;;;22.10;;
44328;SDS011;30039;51.462;6.892;2023-02-28T19:58:38;31.90;;;15.02;;
44328;SDS011;30039;51.462;6.892;2023-02-28T20:01:24;58.80;;;25.15;;
44328;SDS011;30039;51.462;6.892;2023-02-28T20:04:09;15.90;;;7.45;;